Time;durP1;ratioP1;P1;durP2;ratioP2;P2;SDS_P1;SDS_P2;PMS_P1;PMS_P2;Temp;Humidity;BMP_temperature;BMP_pressure;BME280_temperature;BME280_humidity;BME280_pressure;Samples;Min_cycle;Max_cycle;Signal;HPM_P1;HPM_P2
2022/05/31 00:00:59;;;;;;;5.15;2.92;;;;;;;8.80;69.34;98754.22;5005446;28;20072;-75
2022/05/31 00:03:24;;;;;;;4.90;2.72;;;;;;;9.31;68.46;98750.56;5005122;28;20037;-75
2022/05/31 00:05:50;;;;;;;3.30;2.10;;;;;;;9.77;67.58;98760.88;5006719;28;20080;-75
2022/05/31 00:08:15;;;;;;;8.38;2.67;;;;;;;9.62;67.16;98744.66;5007961;28;20030;-75
2022/05/31 00:10:41;;;;;;;4.88;3.15;;;;;;;8.65;69.33;98745.19;4989959;28;20083;-75
2022/05/31 00:13:06;;;;;;;4.78;3.17;;;;;;;8.79;69.63;98749.97;5002179;28;20033;-75
2022/05/31 00:15:32;;;;;;;4.60;3.20;;;;;;;8.40;70.27;98739.38;5004768;28;20033;-75
2022/05/31 00:17:57;;;;;;;4.90;3.50;;;;;;;8.64;69.80;98749.69;5003516;28;20410;-75
2022/05/31 00:20:23;;;;;;;4.60;2.65;;;;;;;8.65;69.88;98753.97;5005067;28;20032;-75
2022/05/31 00:22:48;;;;;;;3.67;2.30;;;;;;;9.31;68.03;98731.94;5004767;28;20033;-75
2022/05/31 00:25:14;;;;;;;6.55;2.60;;;;;;;9.96;67.08;98742.72;4985569;28;20087;-75
2022/05/31 00:27:40;;;;;;;5.18;3.25;;;;;;;9.48;67.05;98738.06;5008470;28;20033;-75
2022/05/31 00:30:06;;;;;;;3.17;2.40;;;;;;;9.57;67.83;98743.78;5002977;28;20037;-75
2022/05/31 00:32:35;;;;;;;4.15;2.88;;;;;;;9.77;66.78;98744.06;4999051;28;20065;-75
2022/05/31 00:35:08;;;;;;;9.88;3.05;;;;;;;9.85;66.20;98740.97;5016058;28;20052;-75
2022/05/31 00:37:35;;;;;;;3.58;2.72;;;;;;;9.88;66.54;98745.81;5004135;28;20501;-75
2022/05/31 00:40:00;;;;;;;4.13;2.67;;;;;;;9.91;66.08;98748.00;5004433;28;20167;-75
2022/05/31 00:42:25;;;;;;;5.80;2.63;;;;;;;9.62;67.39;98731.34;5006253;28;20038;-75
2022/05/31 00:44:51;;;;;;;3.22;2.58;;;;;;;9.55;66.76;98735.22;5006768;28;20038;-75
2022/05/31 00:47:32;;;;;;;5.93;3.22;;;;;;;9.69;66.35;98739.16;4983784;28;20034;-75
2022/05/31 00:50:14;;;;;;;4.45;2.70;;;;;;;9.81;66.69;98739.84;5021710;28;20037;-75
2022/05/31 00:52:46;;;;;;;3.38;2.60;;;;;;;9.66;67.21;98740.47;5006895;28;20482;-75
2022/05/31 00:55:27;;;;;;;4.22;2.53;;;;;;;9.68;66.36;98730.34;5006870;28;20053;-75
2022/05/31 00:58:09;;;;;;;4.97;2.95;;;;;;;9.64;66.71;98744.41;5004690;28;20048;-75
2022/05/31 01:00:39;;;;;;;5.32;3.00;;;;;;;9.65;66.75;98740.72;5004485;28;20362;-75
2022/05/31 01:03:05;;;;;;;6.22;3.60;;;;;;;9.71;66.44;98750.38;5006179;28;20041;-75
2022/05/31 01:05:31;;;;;;;2.83;2.55;;;;;;;9.74;66.43;98734.69;5001518;28;21772;-76
2022/05/31 01:07:56;;;;;;;3.50;3.00;;;;;;;9.36;66.75;98745.34;5001770;28;20041;-76
2022/05/31 01:10:22;;;;;;;4.25;3.15;;;;;;;8.80;67.84;98745.47;5005135;28;20066;-76
2022/05/31 01:12:50;;;;;;;3.95;3.28;;;;;;;8.76;68.74;98741.63;5004868;28;20038;-76
2022/05/31 01:15:17;;;;;;;5.15;4.07;;;;;;;7.92;70.80;98750.34;5004743;28;20080;-76
2022/05/31 01:17:43;;;;;;;6.90;4.40;;;;;;;7.12;73.06;98749.31;5002562;28;20025;-76
2022/05/31 01:20:11;;;;;;;3.58;3.28;;;;;;;7.79;72.40;98745.28;5008601;28;20399;-76
2022/05/31 01:22:51;;;;;;;3.72;3.33;;;;;;;8.18;70.40;98760.47;5000216;28;20567;-76
2022/05/31 01:25:25;;;;;;;5.05;3.38;;;;;;;8.44;69.17;98749.31;5005024;28;20030;-76
2022/05/31 01:28:28;;;;;;;3.90;3.13;;;;;;;8.85;69.49;98753.53;5004994;28;20042;-76
2022/05/31 01:31:02;;;;;;;5.60;3.25;;;;;;;8.93;67.57;98748.59;5007360;28;20026;-76
2022/05/31 01:33:41;;;;;;;7.13;3.88;;;;;;;8.15;69.88;98752.94;5010003;28;20450;-76
2022/05/31 01:36:12;;;;;;;5.05;3.33;;;;;;;8.60;69.53;98726.47;5006450;28;20047;-76
2022/05/31 01:38:45;;;;;;;3.83;2.88;;;;;;;8.92;68.06;98735.56;5004507;28;20124;-76
2022/05/31 01:41:25;;;;;;;4.03;3.50;;;;;;;8.70;68.18;98742.59;5003001;28;20045;-76
2022/05/31 01:43:53;;;;;;;4.50;3.55;;;;;;;9.16;67.30;98739.69;5004382;28;20045;-76
2022/05/31 01:46:26;;;;;;;4.20;3.47;;;;;;;9.19;67.22;98747.19;5002235;28;20038;-76
2022/05/31 01:48:53;;;;;;;6.68;3.45;;;;;;;9.48;66.02;98745.25;5000970;28;20033;-76
2022/05/31 01:51:20;;;;;;;4.75;3.22;;;;;;;8.97;67.52;98749.78;5002228;28;20026;-76
2022/05/31 01:53:45;;;;;;;5.57;3.60;;;;;;;9.02;67.71;98728.53;5002697;28;20124;-76
2022/05/31 01:56:11;;;;;;;4.82;3.03;;;;;;;9.34;66.74;98744.78;5002205;28;20034;-76
2022/05/31 01:58:40;;;;;;;3.97;3.25;;;;;;;9.26;66.34;98739.06;5004134;28;20036;-76
2022/05/31 02:01:05;;;;;;;5.90;4.80;;;;;;;7.68;70.58;98743.44;5005289;28;20045;-76
2022/05/31 02:03:32;;;;;;;4.00;3.38;;;;;;;7.77;70.84;98736.72;5005951;28;20033;-76
2022/05/31 02:05:59;;;;;;;6.28;4.57;;;;;;;7.72;70.22;98731.31;4998216;28;21554;-76
2022/05/31 02:08:26;;;;;;;5.38;4.07;;;;;;;7.04;72.40;98742.47;5002214;28;20041;-76
2022/05/31 02:10:51;;;;;;;9.27;4.45;;;;;;;6.97;72.76;98735.66;5004752;28;20025;-76
2022/05/31 02:13:18;;;;;;;6.03;4.60;;;;;;;7.38;71.76;98739.03;4998811;28;20025;-76
2022/05/31 02:15:45;;;;;;;5.47;4.55;;;;;;;6.60;74.53;98740.28;5004586;28;20100;-76
2022/05/31 02:18:12;;;;;;;6.15;4.55;;;;;;;6.72;73.66;98734.00;5004390;28;20028;-76
2022/05/31 02:20:38;;;;;;;5.45;3.75;;;;;;;7.40;72.53;98730.88;5005063;28;21626;-76
2022/05/31 02:23:03;;;;;;;4.47;3.67;;;;;;;7.85;71.39;98733.72;5004031;28;20045;-76
2022/05/31 02:25:29;;;;;;;8.55;4.45;;;;;;;7.90;69.67;98720.53;4999190;28;20042;-76
2022/05/31 02:27:54;;;;;;;3.83;3.50;;;;;;;7.20;71.94;98731.19;5003562;28;20390;-76
2022/05/31 02:30:20;;;;;;;7.07;4.57;;;;;;;6.78;73.08;98737.56;5005305;28;20025;-76
2022/05/31 02:32:45;;;;;;;5.72;3.50;;;;;;;7.75;71.42;98730.84;5006747;28;20038;-76
2022/05/31 02:35:11;;;;;;;6.88;3.75;;;;;;;7.84;70.95;98732.09;5000732;28;20428;-75
2022/05/31 02:37:37;;;;;;;7.63;4.88;;;;;;;7.79;70.33;98740.78;5003298;28;20046;-75
2022/05/31 02:40:05;;;;;;;4.28;3.80;;;;;;;8.57;69.16;98735.72;5000273;28;20045;-76
2022/05/31 02:42:31;;;;;;;4.35;3.60;;;;;;;8.93;67.63;98729.19;5003241;28;20038;-76
2022/05/31 02:44:56;;;;;;;4.70;4.30;;;;;;;8.65;68.18;98730.00;4988606;28;20394;-76
2022/05/31 02:47:22;;;;;;;4.97;3.53;;;;;;;9.05;67.52;98732.56;5003846;28;20072;-76
2022/05/31 02:49:48;;;;;;;6.00;4.78;;;;;;;7.80;69.96;98730.97;5003364;28;20447;-76
2022/05/31 02:52:14;;;;;;;4.05;3.75;;;;;;;7.73;71.43;98722.31;5005260;28;20030;-76
2022/05/31 02:54:39;;;;;;;5.00;4.07;;;;;;;8.17;70.15;98722.44;5003653;28;20529;-76
2022/05/31 02:57:05;;;;;;;8.45;3.75;;;;;;;7.71;70.40;98724.38;5003926;28;20124;-76
2022/05/31 02:59:30;;;;;;;5.32;4.65;;;;;;;7.42;70.72;98729.59;5004104;28;20069;-75
2022/05/31 03:01:56;;;;;;;8.07;4.57;;;;;;;7.00;72.53;98728.06;4999595;28;20022;-76
2022/05/31 03:04:21;;;;;;;6.22;3.42;;;;;;;8.30;70.02;98726.69;4988590;28;20467;-76
2022/05/31 03:06:47;;;;;;;5.93;3.72;;;;;;;8.73;68.27;98721.66;5000925;28;20533;-76
2022/05/31 03:09:13;;;;;;;5.60;4.57;;;;;;;8.23;69.09;98721.47;5003872;28;20034;-76
2022/05/31 03:11:44;;;;;;;5.38;4.28;;;;;;;8.21;69.47;98731.53;5003508;28;20042;-75
2022/05/31 03:14:26;;;;;;;7.55;4.07;;;;;;;8.86;67.14;98710.72;5000920;28;20034;-75
2022/05/31 03:16:59;;;;;;;6.80;5.32;;;;;;;8.10;68.85;98735.03;4999834;28;20681;-76
2022/05/31 03:19:29;;;;;;;7.55;5.13;;;;;;;6.88;72.93;98727.19;5000075;28;20030;-76
2022/05/31 03:22:00;;;;;;;8.68;4.63;;;;;;;6.53;73.77;98718.38;5000558;28;20120;-76
2022/05/31 03:24:34;;;;;;;4.82;4.35;;;;;;;6.58;73.15;98726.44;5005810;28;20038;-75
2022/05/31 03:27:02;;;;;;;5.50;4.18;;;;;;;7.36;73.17;98724.41;5003298;28;20034;-76
2022/05/31 03:29:28;;;;;;;6.35;3.92;;;;;;;8.30;69.52;98716.06;5004460;28;20108;-76
2022/05/31 03:31:55;;;;;;;5.18;3.70;;;;;;;8.64;68.68;98727.59;5006241;28;20059;-75
2022/05/31 03:34:20;;;;;;;7.47;4.75;;;;;;;8.82;67.79;98724.75;5009395;28;20061;-76
2022/05/31 03:36:46;;;;;;;4.35;3.85;;;;;;;8.40;68.84;98724.25;5013090;28;20037;-76
2022/05/31 03:39:11;;;;;;;6.78;3.97;;;;;;;7.74;70.45;98705.31;5008110;28;20079;-76
2022/05/31 03:41:36;;;;;;;6.53;4.45;;;;;;;7.67;71.39;98723.22;4983591;28;20129;-76
2022/05/31 03:44:03;;;;;;;5.72;4.22;;;;;;;7.58;71.91;98707.63;5005720;28;20121;-76
2022/05/31 03:46:28;;;;;;;14.48;5.65;;;;;;;7.25;72.34;98711.94;5002754;28;20069;-76
2022/05/31 03:48:53;;;;;;;8.02;6.28;;;;;;;7.00;73.34;98716.63;4988554;28;20064;-76
2022/05/31 03:51:18;;;;;;;6.50;4.70;;;;;;;7.01;73.40;98716.38;5010761;28;20125;-75
2022/05/31 03:53:44;;;;;;;5.72;4.28;;;;;;;7.87;71.40;98710.38;5009522;28;20029;-75
2022/05/31 03:56:11;;;;;;;4.80;3.95;;;;;;;8.18;69.56;98704.63;5007429;28;20041;-75
2022/05/31 03:58:37;;;;;;;6.43;4.82;;;;;;;8.29;70.15;98701.97;5004349;28;20498;-75
2022/05/31 04:01:03;;;;;;;8.20;5.47;;;;;;;8.59;69.00;98712.34;5002668;28;20038;-75
2022/05/31 04:03:29;;;;;;;4.07;3.70;;;;;;;8.88;68.22;98713.94;5007816;28;20061;-75
2022/05/31 04:05:54;;;;;;;5.25;4.15;;;;;;;8.88;68.10;98700.63;5004828;28;20026;-75
2022/05/31 04:08:20;;;;;;;6.43;4.45;;;;;;;8.82;68.27;98717.53;5009490;28;20040;-75
2022/05/31 04:10:46;;;;;;;9.55;5.70;;;;;;;8.45;69.49;98716.38;5010476;28;20034;-75
2022/05/31 04:13:13;;;;;;;8.77;5.25;;;;;;;7.95;71.41;98716.13;5010644;28;20432;-75
2022/05/31 04:15:39;;;;;;;8.50;6.72;;;;;;;7.54;73.05;98732.22;5011304;28;20036;-75
2022/05/31 04:18:06;;;;;;;8.93;7.18;;;;;;;7.04;74.90;98729.19;5008062;28;20030;-75
2022/05/31 04:20:32;;;;;;;9.52;6.40;;;;;;;7.35;74.20;98731.56;5009094;28;20034;-75
2022/05/31 04:25:41;;;;;;;11.52;6.82;;;;;;;6.54;77.91;98734.03;5008129;28;20052;-75
2022/05/31 04:28:07;;;;;;;10.18;6.72;;;;;;;6.17;78.90;98713.94;5004610;28;20034;-75
2022/05/31 04:30:32;;;;;;;8.43;6.18;;;;;;;6.32;79.55;98721.50;5001006;28;20034;-75
2022/05/31 04:32:57;;;;;;;11.25;6.60;;;;;;;6.31;79.11;98730.50;5007488;28;20113;-76
2022/05/31 04:35:23;;;;;;;11.65;6.80;;;;;;;6.44;80.18;98717.06;5006892;28;20040;-75
2022/05/31 04:37:48;;;;;;;9.88;6.43;;;;;;;6.43;81.10;98712.78;5003735;28;20379;-76
2022/05/31 04:40:13;;;;;;;13.38;7.72;;;;;;;6.55;80.34;98716.28;5007181;28;20131;-76
2022/05/31 04:42:39;;;;;;;12.25;6.97;;;;;;;6.82;79.62;98723.63;5006113;28;20539;-75
2022/05/31 04:45:05;;;;;;;13.00;7.68;;;;;;;6.97;79.40;98723.19;5005928;28;20390;-76
2022/05/31 04:47:31;;;;;;;9.15;6.90;;;;;;;6.74;80.85;98729.28;5009685;28;20509;-76
2022/05/31 04:49:57;;;;;;;14.40;7.93;;;;;;;6.53;81.48;98713.06;5008763;28;20153;-76
2022/05/31 04:52:22;;;;;;;12.23;8.05;;;;;;;6.87;80.79;98715.00;5005468;28;20632;-76
2022/05/31 04:54:47;;;;;;;13.40;8.07;;;;;;;7.11;79.76;98703.38;4999333;28;20048;-76
2022/05/31 04:57:12;;;;;;;9.32;7.85;;;;;;;7.45;78.20;98710.53;5006186;28;20033;-76
2022/05/31 04:59:38;;;;;;;11.52;8.20;;;;;;;7.44;78.32;98714.25;5004351;28;20065;-76
2022/05/31 05:02:03;;;;;;;9.30;7.40;;;;;;;7.53;77.64;98704.84;5001197;28;20398;-76
2022/05/31 05:04:29;;;;;;;12.65;8.98;;;;;;;7.25;78.78;98718.03;4996044;28;20782;-76
2022/05/31 05:06:54;;;;;;;15.15;8.93;;;;;;;6.81;80.04;98713.25;5013754;28;20485;-76
2022/05/31 05:09:19;;;;;;;13.73;10.55;;;;;;;6.85;80.73;98706.44;4999239;28;20025;-76
2022/05/31 05:11:46;;;;;;;17.02;11.75;;;;;;;6.93;80.09;98711.41;5003255;28;20057;-76
2022/05/31 05:14:11;;;;;;;15.25;12.07;;;;;;;6.95;80.23;98711.19;5004779;28;20038;-76
2022/05/31 05:16:37;;;;;;;9.75;8.48;;;;;;;6.91;81.20;98702.88;5001952;28;20092;-76
2022/05/31 05:19:02;;;;;;;9.65;7.40;;;;;;;7.26;79.25;98702.91;5003468;28;20109;-76
2022/05/31 05:21:28;;;;;;;9.55;6.90;;;;;;;7.91;77.19;98714.97;5001543;28;20133;-76
2022/05/31 05:23:54;;;;;;;14.57;12.13;;;;;;;7.19;79.27;98705.69;5006878;28;20091;-76
2022/05/31 05:26:19;;;;;;;17.35;13.15;;;;;;;7.26;79.63;98710.88;5002811;28;20022;-76
2022/05/31 05:31:33;;;;;;;8.68;6.78;;;;;;;8.65;75.42;98700.75;5001340;28;20048;-76
2022/05/31 05:34:00;;;;;;;7.78;6.63;;;;;;;9.04;73.73;98694.50;5003733;28;20478;-76
2022/05/31 05:36:26;;;;;;;12.32;7.63;;;;;;;8.68;75.85;98702.94;5000516;28;20175;-76
2022/05/31 05:38:51;;;;;;;16.50;10.43;;;;;;;8.95;74.54;98693.28;5006716;28;20120;-76
2022/05/31 05:41:18;;;;;;;13.82;11.02;;;;;;;8.41;77.66;98704.56;5000919;28;20029;-76
2022/05/31 05:43:44;;;;;;;17.35;11.38;;;;;;;7.92;80.23;98703.31;5004604;28;20088;-76
2022/05/31 05:46:15;;;;;;;12.10;8.20;;;;;;;8.43;78.22;98699.03;5006338;28;20077;-76
2022/05/31 05:48:42;;;;;;;14.63;10.60;;;;;;;7.94;77.84;98695.91;5001330;28;20063;-76
2022/05/31 05:51:12;;;;;;;14.20;11.02;;;;;;;7.77;81.36;98697.69;4999549;28;20087;-76
2022/05/31 05:53:38;;;;;;;16.13;11.18;;;;;;;8.18;80.38;98696.66;5022738;28;20029;-76
2022/05/31 05:56:03;;;;;;;10.52;6.85;;;;;;;9.15;75.52;98702.66;5001751;28;20045;-76
2022/05/31 05:58:28;;;;;;;11.02;9.93;;;;;;;9.01;77.46;98692.34;5003137;28;20029;-76
2022/05/31 06:00:54;;;;;;;12.50;9.40;;;;;;;9.41;75.26;98689.50;5005751;28;20034;-75
2022/05/31 06:03:27;;;;;;;13.10;8.30;;;;;;;9.77;75.59;98706.75;5005635;28;20030;-75
2022/05/31 06:05:53;;;;;;;9.32;7.90;;;;;;;9.32;77.14;98706.94;4995537;28;20040;-75
2022/05/31 06:08:47;;;;;;;7.97;5.90;;;;;;;10.41;70.65;98694.50;5000767;28;20045;-75
2022/05/31 06:11:21;;;;;;;6.82;5.43;;;;;;;10.90;68.66;98682.69;4999437;28;20036;-76
2022/05/31 06:14:08;;;;;;;13.95;7.32;;;;;;;10.50;73.02;98690.34;5004034;28;20038;-76
2022/05/31 06:16:37;;;;;;;9.95;7.60;;;;;;;10.57;72.61;98690.13;5000656;28;20030;-76
2022/05/31 06:19:17;;;;;;;15.65;7.50;;;;;;;10.14;74.04;98699.78;5003070;28;20030;-76
2022/05/31 06:21:44;;;;;;;10.07;7.32;;;;;;;10.92;70.57;98677.09;4998950;28;20057;-76
2022/05/31 06:24:10;;;;;;;7.72;5.18;;;;;;;11.42;67.97;98688.19;5001683;28;20408;-75
2022/05/31 06:26:36;;;;;;;6.90;6.03;;;;;;;11.27;70.51;98694.19;4997681;28;20041;-76
2022/05/31 06:29:03;;;;;;;7.55;5.32;;;;;;;11.56;67.45;98685.84;5002632;28;20485;-75
2022/05/31 06:31:29;;;;;;;7.00;5.18;;;;;;;11.73;67.40;98698.00;5004425;28;20474;-75
2022/05/31 06:33:54;;;;;;;7.35;5.32;;;;;;;11.75;67.35;98695.88;4999317;28;20036;-76
2022/05/31 06:36:19;;;;;;;5.60;4.45;;;;;;;11.96;66.90;98704.81;4997918;28;20042;-76
2022/05/31 06:38:45;;;;;;;8.88;4.53;;;;;;;11.68;67.29;98698.00;4999087;28;20041;-75
2022/05/31 06:41:10;;;;;;;10.77;4.80;;;;;;;11.78;66.05;98707.91;5003175;28;20038;-75
2022/05/31 06:43:35;;;;;;;12.77;4.63;;;;;;;11.82;67.18;98699.13;4990034;28;20072;-75
2022/05/31 06:46:09;;;;;;;9.63;5.38;;;;;;;11.92;66.87;98691.16;5005618;28;20120;-76
2022/05/31 06:48:34;;;;;;;13.20;5.45;;;;;;;11.95;67.38;98709.34;5006011;28;20037;-75
2022/05/31 06:51:05;;;;;;;13.13;5.18;;;;;;;11.84;67.28;98693.50;5003555;28;20030;-75
2022/05/31 06:58:52;;;;;;;7.18;4.55;;;;;;;12.05;65.77;98697.91;5007999;28;20034;-75
2022/05/31 07:01:17;;;;;;;4.88;4.15;;;;;;;11.90;65.82;98679.91;5003838;28;20041;-75
2022/05/31 07:03:42;;;;;;;11.20;5.25;;;;;;;11.93;66.11;98697.28;5002464;28;20398;-75
2022/05/31 07:06:08;;;;;;;8.70;4.88;;;;;;;11.93;66.49;98671.34;5001887;28;20539;-75
2022/05/31 07:08:33;;;;;;;8.48;4.50;;;;;;;12.12;67.46;98665.56;5001308;28;20025;-75
2022/05/31 07:11:01;;;;;;;8.45;4.63;;;;;;;12.49;65.02;98687.59;5006780;28;20038;-75
2022/05/31 07:13:27;;;;;;;6.20;4.28;;;;;;;12.14;67.34;98677.59;5003674;28;20415;-75
2022/05/31 07:15:53;;;;;;;7.55;4.15;;;;;;;12.06;66.94;98682.66;5001210;28;20030;-75
2022/05/31 07:18:19;;;;;;;8.70;3.95;;;;;;;12.61;65.59;98683.59;5005164;28;20061;-76
2022/05/31 07:20:45;;;;;;;7.80;4.25;;;;;;;12.36;65.91;98674.72;5006113;28;20033;-75
2022/05/31 07:23:11;;;;;;;8.48;5.13;;;;;;;12.00;67.74;98685.31;5005811;28;20481;-75
2022/05/31 07:25:37;;;;;;;9.00;4.25;;;;;;;12.21;66.83;98685.38;5006995;28;20041;-75
2022/05/31 07:28:02;;;;;;;7.32;3.90;;;;;;;12.72;65.44;98687.91;5005652;28;20088;-75
2022/05/31 07:30:28;;;;;;;6.88;3.47;;;;;;;12.82;65.06;98680.97;5005774;28;20034;-75
2022/05/31 07:32:53;;;;;;;10.23;4.43;;;;;;;12.97;64.19;98670.25;5005561;28;20038;-75
2022/05/31 07:35:18;;;;;;;7.18;3.95;;;;;;;13.03;65.48;98677.22;5008392;28;20113;-76
2022/05/31 07:37:43;;;;;;;7.53;3.55;;;;;;;13.12;64.31;98670.28;5001002;28;20381;-76
2022/05/31 07:40:09;;;;;;;6.93;3.83;;;;;;;13.21;65.55;98653.41;5001915;28;20063;-76
2022/05/31 07:42:35;;;;;;;11.65;4.43;;;;;;;12.98;66.18;98656.59;4991232;28;20030;-75
2022/05/31 07:45:00;;;;;;;7.82;4.45;;;;;;;13.06;66.37;98660.63;5004370;28;20108;-76
2022/05/31 07:47:26;;;;;;;11.68;5.22;;;;;;;12.78;66.16;98660.06;5003201;28;20074;-76
2022/05/31 07:49:51;;;;;;;8.93;5.50;;;;;;;12.55;68.00;98654.41;5003863;28;20049;-76
2022/05/31 07:52:17;;;;;;;8.85;4.97;;;;;;;11.79;69.40;98653.38;5004903;28;20084;-75
2022/05/31 07:54:42;;;;;;;13.30;5.70;;;;;;;12.17;71.01;98636.13;5004299;28;20080;-75
2022/05/31 07:58:30;;;;;;;10.77;5.22;;;;;;;12.46;68.98;98645.28;5004817;28;20509;-75
2022/05/31 07:59:53;;;;;;;9.65;6.07;;;;;;;12.08;70.89;98632.38;5006277;28;20038;-75
2022/05/31 08:02:18;;;;;;;11.85;5.60;;;;;;;12.22;69.69;98638.81;5007358;28;20092;-75
2022/05/31 08:04:43;;;;;;;4.28;3.50;;;;;;;12.62;68.09;98641.56;5006998;28;20076;-76
2022/05/31 08:07:08;;;;;;;11.23;5.65;;;;;;;12.42;70.20;98642.34;5004833;28;20036;-75
2022/05/31 08:09:34;;;;;;;6.65;5.43;;;;;;;12.08;71.46;98640.41;5006110;28;20405;-75
2022/05/31 08:11:59;;;;;;;9.70;6.10;;;;;;;12.48;72.05;98624.41;5004893;28;20030;-76
2022/05/31 08:14:25;;;;;;;8.23;4.88;;;;;;;12.48;69.51;98635.94;5005581;28;20041;-75
2022/05/31 08:16:52;;;;;;;6.47;5.15;;;;;;;12.59;70.26;98639.41;5005137;28;20038;-76
2022/05/31 08:19:17;;;;;;;9.30;4.80;;;;;;;12.71;69.81;98631.94;5008375;28;20522;-76
2022/05/31 08:21:42;;;;;;;10.57;5.75;;;;;;;12.25;72.53;98632.94;4986696;28;20038;-75
2022/05/31 08:24:08;;;;;;;10.80;5.15;;;;;;;12.27;70.68;98625.47;5025264;28;20072;-75
2022/05/31 08:26:33;;;;;;;6.30;3.97;;;;;;;12.86;68.96;98629.28;5006423;28;20543;-76
2022/05/31 08:28:59;;;;;;;6.25;3.40;;;;;;;13.30;67.57;98630.31;5008343;28;20034;-76
2022/05/31 08:31:31;;;;;;;18.30;5.97;;;;;;;13.27;69.37;98622.03;5006189;28;20104;-76
2022/05/31 08:33:56;;;;;;;8.43;4.80;;;;;;;13.60;67.01;98629.44;5007857;28;20029;-76
2022/05/31 08:36:22;;;;;;;7.75;3.60;;;;;;;13.78;66.64;98622.69;5006421;28;20038;-76
2022/05/31 08:38:47;;;;;;;9.90;5.00;;;;;;;13.84;66.26;98608.16;5008333;28;20045;-76
2022/05/31 08:41:27;;;;;;;8.23;4.82;;;;;;;13.73;67.89;98626.19;5005579;28;20143;-76
2022/05/31 08:43:52;;;;;;;9.88;4.32;;;;;;;14.00;65.77;98617.75;5008265;28;20052;-76
2022/05/31 08:46:43;;;;;;;4.35;3.13;;;;;;;14.12;65.34;98612.84;5004791;28;20030;-76
2022/05/31 08:51:52;;;;;;;9.88;4.82;;;;;;;13.60;67.57;98612.56;5009211;28;20044;-76
2022/05/31 08:52:35;;;;;;;10.85;5.10;;;;;;;13.30;66.79;98592.78;5010354;28;20044;-76
2022/05/31 08:57:58;;;;;;;9.45;5.13;;;;;;;13.76;66.91;98604.16;5008612;28;20103;-76
2022/05/31 09:00:30;;;;;;;7.63;4.30;;;;;;;13.72;66.25;98594.25;5007662;28;20470;-76
2022/05/31 09:03:18;;;;;;;8.52;4.40;;;;;;;13.81;66.80;98603.34;5011307;28;20152;-76
2022/05/31 09:05:54;;;;;;;7.05;4.38;;;;;;;14.37;64.95;98591.28;5014299;28;20037;-76
2022/05/31 09:08:46;;;;;;;3.50;3.20;;;;;;;14.00;61.01;98588.25;5009736;28;20121;-76
2022/05/31 09:11:20;;;;;;;4.97;3.05;;;;;;;14.54;64.08;98585.50;5008703;28;20113;-76
2022/05/31 09:14:10;;;;;;;8.48;4.53;;;;;;;14.28;62.88;98576.81;5005272;28;20113;-76
2022/05/31 09:17:02;;;;;;;6.22;3.83;;;;;;;14.74;63.03;98586.13;4997587;28;20038;-76
2022/05/31 09:19:41;;;;;;;7.18;4.60;;;;;;;14.92;62.57;98580.06;5006705;28;20041;-76
2022/05/31 09:22:07;;;;;;;6.57;3.50;;;;;;;14.78;63.18;98570.25;5010469;28;21484;-76
2022/05/31 09:24:40;;;;;;;5.30;3.00;;;;;;;15.27;62.16;98576.22;5002397;28;20041;-76
2022/05/31 09:27:11;;;;;;;7.18;2.92;;;;;;;15.59;61.06;98575.66;5002868;28;20053;-76
2022/05/31 09:29:58;;;;;;;8.10;4.70;;;;;;;15.51;60.38;98577.06;5024776;28;20030;-76
2022/05/31 09:32:45;;;;;;;7.00;3.28;;;;;;;14.90;61.30;98574.19;5004932;28;20042;-76
2022/05/31 09:35:22;;;;;;;3.50;2.58;;;;;;;15.72;60.32;98566.88;5004972;28;20061;-76
2022/05/31 09:38:31;;;;;;;7.00;3.88;;;;;;;15.57;57.67;98559.00;5010012;28;20030;-76
2022/05/31 09:41:08;;;;;;;6.95;3.95;;;;;;;15.67;61.06;98559.66;5006994;28;20034;-76
2022/05/31 09:44:06;;;;;;;5.70;3.60;;;;;;;15.46;59.95;98552.13;5007160;28;20424;-76
2022/05/31 09:46:40;;;;;;;6.75;4.20;;;;;;;15.47;59.36;98556.41;5004916;28;20037;-76
2022/05/31 09:49:20;;;;;;;4.80;4.32;;;;;;;15.52;59.81;98548.28;5024546;28;20409;-76
2022/05/31 09:51:46;;;;;;;6.13;3.75;;;;;;;15.99;59.71;98534.72;5008963;28;20072;-76
2022/05/31 09:57:06;;;;;;;8.05;4.45;;;;;;;15.35;61.02;98529.09;5006236;28;20052;-76
2022/05/31 09:59:52;;;;;;;7.78;4.20;;;;;;;15.73;61.32;98534.28;5008439;28;20043;-76
2022/05/31 10:02:24;;;;;;;5.95;4.35;;;;;;;15.92;60.73;98528.94;5007071;28;20045;-76
2022/05/31 10:05:05;;;;;;;7.15;4.25;;;;;;;16.05;58.70;98524.72;5007670;28;20046;-76
2022/05/31 10:07:33;;;;;;;5.68;3.75;;;;;;;16.04;58.44;98517.72;5007222;28;20722;-76
2022/05/31 10:10:30;;;;;;;6.65;3.58;;;;;;;16.53;58.60;98515.38;5011122;28;20041;-76
2022/05/31 10:12:58;;;;;;;8.27;4.32;;;;;;;15.69;58.33;98503.66;5002685;28;20026;-76
2022/05/31 10:15:43;;;;;;;5.72;4.00;;;;;;;16.38;58.33;98502.13;5005750;28;20037;-76
2022/05/31 10:18:26;;;;;;;6.30;3.13;;;;;;;16.97;57.41;98509.47;5009488;28;20444;-76
2022/05/31 10:20:58;;;;;;;5.88;3.85;;;;;;;16.61;54.84;98505.78;5007200;28;20033;-76
2022/05/31 10:23:32;;;;;;;4.85;3.50;;;;;;;16.79;54.32;98496.84;5005174;28;20029;-76
2022/05/31 10:25:59;;;;;;;5.43;3.10;;;;;;;17.22;55.39;98499.00;5000344;28;20140;-76
2022/05/31 10:28:33;;;;;;;5.18;3.53;;;;;;;17.27;52.69;98502.69;5005904;28;20534;-76
2022/05/31 10:31:20;;;;;;;4.53;3.22;;;;;;;16.71;53.71;98494.84;5023849;28;20030;-76
2022/05/31 10:34:26;;;;;;;8.50;4.30;;;;;;;16.68;52.02;98500.81;5011847;28;20042;-76
2022/05/31 10:36:55;;;;;;;5.80;3.15;;;;;;;17.82;53.23;98507.75;4997225;28;20034;-76
2022/05/31 10:39:26;;;;;;;8.63;3.13;;;;;;;18.05;53.07;98497.78;5006575;28;20021;-76
2022/05/31 10:41:54;;;;;;;5.35;3.10;;;;;;;18.15;52.43;98496.78;5002057;28;20025;-76
2022/05/31 10:44:28;;;;;;;7.80;3.78;;;;;;;18.20;51.14;98493.94;4999375;28;20117;-76
2022/05/31 10:47:00;;;;;;;4.95;2.95;;;;;;;17.86;51.36;98484.47;5003098;28;20289;-76
2022/05/31 10:49:26;;;;;;;4.57;3.08;;;;;;;18.29;50.10;98479.38;5004814;28;20069;-76
2022/05/31 10:52:10;;;;;;;4.07;2.63;;;;;;;19.03;51.46;98485.06;5006996;28;20072;-76
2022/05/31 10:54:52;;;;;;;3.63;2.97;;;;;;;18.77;50.08;98482.25;5007827;28;20397;-76
2022/05/31 10:57:48;;;;;;;6.15;3.08;;;;;;;18.38;49.63;98482.94;5018755;28;20538;-76
2022/05/31 11:00:30;;;;;;;3.80;2.75;;;;;;;18.99;50.21;98473.28;5004486;28;20028;-76
2022/05/31 11:03:07;;;;;;;4.53;2.45;;;;;;;19.65;48.05;98470.34;5019311;28;20120;-76
2022/05/31 11:06:20;;;;;;;3.47;2.45;;;;;;;19.88;48.21;98474.50;5005888;28;20099;-76
2022/05/31 11:12:11;;;;;;;4.43;2.30;;;;;;;20.38;47.21;98460.50;5002698;28;20072;-76
2022/05/31 11:14:50;;;;;;;2.90;2.70;;;;;;;19.87;42.99;98453.16;5003518;28;20359;-76
2022/05/31 11:17:50;;;;;;;2.10;1.90;;;;;;;20.55;45.60;98466.66;5003711;28;20025;-76
2022/05/31 11:20:23;;;;;;;2.45;2.25;;;;;;;20.67;45.30;98468.72;5001533;28;20042;-76
2022/05/31 11:23:24;;;;;;;3.95;2.28;;;;;;;20.82;44.53;98470.91;5002808;28;20083;-76
2022/05/31 11:26:01;;;;;;;2.90;2.25;;;;;;;19.72;43.33;98464.47;5004516;28;20058;-77
2022/05/31 11:28:40;;;;;;;3.50;2.10;;;;;;;19.80;45.49;98456.34;5003805;28;20488;-76
2022/05/31 11:31:45;;;;;;;3.97;2.22;;;;;;;18.72;47.02;98465.38;5004143;28;20044;-76
2022/05/31 11:34:32;;;;;;;1.95;1.85;;;;;;;19.81;46.25;98457.16;5003923;28;20053;-76
2022/05/31 11:37:15;;;;;;;2.25;1.95;;;;;;;20.35;46.18;98453.81;5005546;28;20168;-76
2022/05/31 11:40:03;;;;;;;5.80;2.45;;;;;;;20.09;44.29;98463.84;5001955;28;20045;-76
2022/05/31 11:42:34;;;;;;;4.05;1.92;;;;;;;20.01;46.76;98461.91;5007636;28;20080;-76
2022/05/31 11:45:34;;;;;;;3.33;2.20;;;;;;;20.11;45.09;98461.59;4994933;28;20026;-76
2022/05/31 11:48:17;;;;;;;2.10;1.95;;;;;;;19.89;43.93;98449.03;5000731;28;20029;-76
2022/05/31 11:50:51;;;;;;;4.47;1.92;;;;;;;19.76;45.86;98457.28;5003050;28;21842;-76
2022/05/31 11:53:35;;;;;;;4.88;2.60;;;;;;;19.88;45.92;98449.31;5008443;28;20022;-76
2022/05/31 11:56:09;;;;;;;5.45;2.30;;;;;;;19.68;46.41;98441.84;5007526;28;20030;-76
2022/05/31 11:58:37;;;;;;;2.40;2.20;;;;;;;19.83;46.28;98430.53;5006632;28;20441;-76
2022/05/31 12:01:27;;;;;;;3.08;2.80;;;;;;;19.55;47.26;98426.53;5007308;28;20580;-77
2022/05/31 12:04:02;;;;;;;5.65;2.97;;;;;;;19.53;45.66;98420.63;5005963;28;20026;-77
2022/05/31 12:06:32;;;;;;;3.78;2.28;;;;;;;19.54;45.32;98416.81;5005421;28;20067;-77
2022/05/31 12:09:03;;;;;;;3.63;2.40;;;;;;;19.77;46.04;98412.81;5005713;28;20036;-77
2022/05/31 12:11:35;;;;;;;4.72;1.98;;;;;;;20.06;45.04;98413.78;5006619;28;20034;-76
2022/05/31 12:14:02;;;;;;;3.47;2.30;;;;;;;19.94;44.47;98412.84;5009830;28;20162;-76